Time;durP1;ratioP1;P1;durP2;ratioP2;P2;SDS_P1;SDS_P2;PMS_P1;PMS_P2;Temp;Humidity;BMP_temperature;BMP_pressure;BME280_temperature;BME280_humidity;BME280_pressure;Samples;Min_cycle;Max_cycle;Signal;HPM_P1;HPM_P2
2022/09/10 00:01:26;;;;;;;22.63;10.90;;;;;;;7.19;83.30;100690.50;4961687;28;20298;-55
2022/09/10 00:03:53;;;;;;;27.65;11.15;;;;;;;7.17;83.54;100687.03;4967324;28;20039;-55
2022/09/10 00:06:20;;;;;;;28.83;11.05;;;;;;;7.16;83.86;100693.09;4967060;28;20034;-53
2022/09/10 00:08:47;;;;;;;22.13;10.52;;;;;;;7.14;83.31;100697.41;4968792;28;20034;-54
2022/09/10 00:11:14;;;;;;;22.77;10.55;;;;;;;7.13;84.03;100692.25;4968183;28;20043;-55
2022/09/10 00:13:39;;;;;;;24.90;10.88;;;;;;;6.81;83.65;100646.69;4968838;28;20553;-55
2022/09/10 00:16:08;;;;;;;26.95;11.25;;;;;;;7.14;83.53;100694.81;4968143;28;20141;-54
2022/09/10 00:18:34;;;;;;;21.70;11.13;;;;;;;7.10;83.52;100692.25;4967143;28;20070;-52
2022/09/10 00:21:05;;;;;;;26.35;11.18;;;;;;;7.11;83.36;100700.03;4967182;28;20046;-52
2022/09/10 00:23:31;;;;;;;26.38;10.57;;;;;;;7.13;83.22;100702.59;4964615;28;20515;-56
2022/09/10 00:25:57;;;;;;;23.52;10.18;;;;;;;7.10;83.44;100698.31;4966059;28;20039;-54
2022/09/10 00:28:25;;;;;;;21.75;10.57;;;;;;;7.10;83.40;100697.44;4967557;28;20825;-54
2022/09/10 00:30:53;;;;;;;26.20;10.05;;;;;;;6.89;83.68;100661.31;4965970;28;20566;-54
2022/09/10 00:33:20;;;;;;;24.55;10.00;;;;;;;7.11;83.17;100699.16;4966514;28;20125;-53
2022/09/10 00:35:46;;;;;;;23.67;10.30;;;;;;;7.09;83.62;100694.00;4964107;28;20054;-55
2022/09/10 00:38:13;;;;;;;22.15;10.23;;;;;;;7.05;83.16;100694.00;4932879;28;20057;-53
2022/09/10 00:40:39;;;;;;;24.20;11.10;;;;;;;7.07;83.52;100695.72;4963880;28;20055;-51
2022/09/10 00:43:18;;;;;;;25.42;10.15;;;;;;;7.04;83.80;100695.72;4949138;28;20517;-54
2022/09/10 00:45:47;;;;;;;19.80;9.90;;;;;;;7.02;84.20;100699.19;4966161;28;20514;-54
2022/09/10 00:48:16;;;;;;;21.67;9.97;;;;;;;6.99;84.20;100700.06;4967287;28;20577;-55
2022/09/10 00:50:44;;;;;;;20.52;10.68;;;;;;;6.97;84.13;100704.38;4966764;28;20053;-56
2022/09/10 00:53:15;;;;;;;19.42;10.38;;;;;;;6.96;84.24;100707.81;4967022;28;20050;-54
2022/09/10 00:55:44;;;;;;;27.55;10.18;;;;;;;6.94;84.15;100709.56;4967231;28;20042;-53
2022/09/10 00:58:11;;;;;;;28.95;11.02;;;;;;;6.90;84.23;100704.41;4968506;28;20049;-57
2022/09/10 01:00:40;;;;;;;26.20;9.93;;;;;;;6.81;84.35;100697.53;4965897;28;20070;-55
2022/09/10 01:03:07;;;;;;;22.95;10.25;;;;;;;6.86;84.55;100706.13;4964915;28;20126;-56
2022/09/10 01:05:33;;;;;;;22.77;10.32;;;;;;;6.84;85.16;100707.88;4948168;28;20043;-55
2022/09/10 01:07:59;;;;;;;20.50;9.77;;;;;;;6.83;84.58;100706.16;4967730;28;20051;-58
2022/09/10 01:10:28;;;;;;;22.42;10.18;;;;;;;6.82;84.80;100699.25;4969664;28;20133;-59
2022/09/10 01:13:12;;;;;;;22.83;10.43;;;;;;;6.82;85.25;100707.88;4972494;28;20077;-57
2022/09/10 01:15:47;;;;;;;25.25;10.68;;;;;;;6.80;85.45;100707.00;4970047;28;20525;-58
2022/09/10 01:18:20;;;;;;;17.85;10.10;;;;;;;6.80;85.27;100701.00;4952410;28;20421;-56
2022/09/10 01:21:00;;;;;;;21.42;10.63;;;;;;;6.79;85.13;100710.47;4956893;28;20407;-56
2022/09/10 01:23:32;;;;;;;18.65;10.20;;;;;;;6.78;85.54;100708.75;4950380;28;20103;-57
2022/09/10 01:26:10;;;;;;;18.23;10.10;;;;;;;6.77;85.08;100714.78;4962307;28;20042;-53
2022/09/10 01:28:48;;;;;;;24.40;10.13;;;;;;;6.76;85.33;100715.63;4953065;28;20089;-53
2022/09/10 01:31:47;;;;;;;24.05;10.88;;;;;;;6.74;85.23;100714.78;4951504;28;20047;-56
2022/09/10 01:34:19;;;;;;;23.58;10.55;;;;;;;6.72;85.55;100726.84;4955917;28;20058;-54
2022/09/10 01:36:49;;;;;;;25.02;10.52;;;;;;;6.67;85.40;100715.66;4954691;28;20122;-51
2022/09/10 01:39:17;;;;;;;21.30;11.30;;;;;;;6.69;85.58;100715.66;4969159;28;20046;-55
2022/09/10 01:41:43;;;;;;;23.00;11.18;;;;;;;6.68;85.74;100722.56;4970408;28;20142;-54
2022/09/10 01:44:30;;;;;;;31.33;11.73;;;;;;;6.69;86.03;100720.84;4969922;28;20137;-51
2022/09/10 01:47:11;;;;;;;27.92;12.38;;;;;;;6.64;86.12;100719.97;4972107;28;20047;-55
2022/09/10 01:50:09;;;;;;;27.85;11.95;;;;;;;6.66;85.73;100719.09;4949810;28;20038;-54
2022/09/10 01:53:00;;;;;;;25.92;12.50;;;;;;;6.65;86.22;100719.97;4970343;28;20049;-50
2022/09/10 01:55:48;;;;;;;30.35;12.38;;;;;;;6.63;86.11;100720.84;4938140;28;20133;-53
2022/09/10 01:58:29;;;;;;;27.02;13.18;;;;;;;6.44;85.81;100683.00;4977886;28;20122;-50
2022/09/10 02:01:10;;;;;;;24.73;12.80;;;;;;;6.60;86.09;100716.53;4951709;28;20046;-54
2022/09/10 02:03:36;;;;;;;;;;;;;;;6.58;85.85;100717.41;4964789;28;20066;-54
2022/09/10 02:06:03;;;;;;;26.23;11.32;;;;;;;6.54;85.59;100724.28;4950116;28;19953;-53
2022/09/10 02:08:36;;;;;;;29.83;11.88;;;;;;;6.32;85.84;100682.13;4951229;28;20043;-53
2022/09/10 02:11:08;;;;;;;23.33;12.32;;;;;;;6.53;86.41;100716.56;4965852;28;20407;-56
2022/09/10 02:13:37;;;;;;;22.63;11.63;;;;;;;6.35;85.77;100692.44;4936840;28;20511;-56
2022/09/10 02:16:32;;;;;;;26.83;11.93;;;;;;;6.32;85.83;100689.03;4968564;28;20132;-54
2022/09/10 02:18:59;;;;;;;27.02;11.80;;;;;;;6.35;86.02;100696.75;4969760;28;20129;-55
2022/09/10 02:21:25;;;;;;;28.40;11.30;;;;;;;6.34;85.78;100689.88;4949249;28;20050;-54
2022/09/10 02:23:55;;;;;;;29.33;12.00;;;;;;;6.48;86.28;100711.41;4966654;28;20554;-55
2022/09/10 02:26:21;;;;;;;;;;;;;;;6.47;86.27;100708.81;4977026;28;20130;-49
2022/09/10 02:28:48;;;;;;;25.63;11.98;;;;;;;6.41;86.11;100704.50;4961703;28;19921;-51
2022/09/10 02:31:14;;;;;;;30.00;12.93;;;;;;;6.42;86.43;100702.78;4968346;28;20046;-50
2022/09/10 02:33:40;;;;;;;28.48;12.98;;;;;;;6.42;85.70;100706.22;4970657;28;20053;-50
2022/09/10 02:36:07;;;;;;;27.17;12.35;;;;;;;6.40;86.15;100702.78;4969456;28;20478;-56
2022/09/10 02:38:33;;;;;;;32.95;13.05;;;;;;;6.25;85.95;100679.56;4937121;28;20066;-56
2022/09/10 02:40:59;;;;;;;33.03;11.85;;;;;;;6.41;85.77;100712.25;4968817;28;20062;-55
2022/09/10 02:43:26;;;;;;;28.38;12.60;;;;;;;6.38;86.39;100707.09;4952769;28;20046;-54
2022/09/10 02:45:56;;;;;;;29.75;12.23;;;;;;;6.42;86.35;100702.78;4968712;28;20049;-55
2022/09/10 02:48:24;;;;;;;31.30;12.32;;;;;;;6.42;86.01;100701.06;4935511;28;20051;-55
2022/09/10 02:50:53;;;;;;;28.70;13.57;;;;;;;6.43;85.92;100701.94;4965385;28;20042;-54
2022/09/10 02:53:19;;;;;;;32.65;12.55;;;;;;;6.42;85.51;100702.78;4968389;28;20431;-55
2022/09/10 02:55:48;;;;;;;23.42;12.80;;;;;;;6.40;85.31;100710.53;4968635;28;20038;-56
2022/09/10 02:58:15;;;;;;;36.65;11.90;;;;;;;6.38;86.03;100701.94;4969982;28;20537;-51
2022/09/10 03:00:41;;;;;;;26.55;11.80;;;;;;;6.39;86.15;100711.38;4966237;28;21730;-54
2022/09/10 03:03:07;;;;;;;25.80;12.20;;;;;;;6.37;85.61;100708.81;4951900;28;20474;-53
2022/09/10 03:05:37;;;;;;;31.55;12.52;;;;;;;6.35;86.29;100701.91;4968309;28;20042;-54
2022/09/10 03:08:04;;;;;;;27.60;12.80;;;;;;;6.38;85.96;100699.34;4968377;28;20438;-56
2022/09/10 03:10:30;;;;;;;33.72;13.50;;;;;;;6.38;85.76;100705.34;4964064;28;20414;-52
2022/09/10 03:12:57;;;;;;;26.15;12.35;;;;;;;6.39;86.25;100704.50;4949050;28;20050;-52
2022/09/10 03:15:24;;;;;;;29.63;13.88;;;;;;;6.34;86.19;100701.06;4962481;28;20042;-55
2022/09/10 03:17:50;;;;;;;35.25;12.90;;;;;;;6.41;86.09;100709.66;4968569;28;20043;-55
2022/09/10 03:20:19;;;;;;;29.85;12.63;;;;;;;6.42;86.24;100710.53;4952083;28;20047;-53
2022/09/10 03:22:46;;;;;;;33.38;13.45;;;;;;;6.43;85.53;100707.97;4953009;28;20058;-55
2022/09/10 03:25:14;;;;;;;28.55;13.20;;;;;;;6.43;85.33;100709.69;4967503;28;20042;-55
2022/09/10 03:27:40;;;;;;;31.15;12.55;;;;;;;6.19;85.30;100667.50;4968406;28;20050;-56
2022/09/10 03:30:08;;;;;;;32.80;12.75;;;;;;;6.47;85.29;100707.09;4965232;28;20134;-55
2022/09/10 03:32:34;;;;;;;35.22;12.88;;;;;;;6.36;85.37;100685.56;4969125;28;20125;-49
2022/09/10 03:34:59;;;;;;;28.75;13.10;;;;;;;6.51;85.49;100713.97;4966589;28;20046;-53
2022/09/10 03:37:25;;;;;;;31.63;13.07;;;;;;;6.55;85.36;100717.38;4967808;28;20038;-51
2022/09/10 03:39:52;;;;;;;35.63;14.13;;;;;;;6.58;85.03;100715.69;4969168;28;20047;-54
2022/09/10 03:42:18;;;;;;;24.92;12.02;;;;;;;6.31;85.40;100661.47;4968146;28;20061;-53
2022/09/10 03:44:44;;;;;;;34.47;13.77;;;;;;;6.63;85.15;100719.13;4951591;28;20050;-53
2022/09/10 03:47:11;;;;;;;30.63;12.00;;;;;;;6.35;85.09;100664.03;4967057;28;20542;-54
2022/09/10 03:49:38;;;;;;;26.73;12.68;;;;;;;6.67;84.79;100714.78;4968140;28;20038;-52
2022/09/10 03:52:05;;;;;;;30.90;12.50;;;;;;;6.70;85.07;100714.78;4969033;28;20070;-52
2022/09/10 03:54:36;;;;;;;;;;;;;;;6.77;84.78;100717.34;4966387;28;20128;-57
2022/09/10 03:57:02;;;;;;;35.60;13.13;;;;;;;6.62;84.60;100688.97;4968086;28;19924;-57
2022/09/10 03:59:30;;;;;;;32.60;12.82;;;;;;;6.78;83.89;100703.56;4971851;28;20097;-55
2022/09/10 04:01:59;;;;;;;31.40;13.32;;;;;;;6.91;83.98;100721.66;4965202;28;20039;-53
2022/09/10 04:04:24;;;;;;;23.10;12.00;;;;;;;6.93;84.04;100709.56;4966956;28;20042;-54
2022/09/10 04:06:52;;;;;;;28.92;12.30;;;;;;;6.84;83.79;100694.09;4967207;28;20047;-50
2022/09/10 04:09:18;;;;;;;29.15;11.93;;;;;;;7.03;83.44;100719.00;4966749;28;20050;-55
2022/09/10 04:11:44;;;;;;;27.60;11.80;;;;;;;7.08;83.29;100725.88;4966846;28;20495;-54
2022/09/10 04:14:10;;;;;;;21.17;9.80;;;;;;;7.11;83.71;100718.13;4967529;28;20043;-54
2022/09/10 04:16:39;;;;;;;24.70;11.73;;;;;;;7.16;82.77;100720.69;4967420;28;20422;-55
2022/09/10 04:19:07;;;;;;;27.38;11.50;;;;;;;7.20;82.85;100717.22;4951264;28;20125;-55
2022/09/10 04:21:34;;;;;;;31.15;12.05;;;;;;;7.26;82.93;100717.19;4951090;28;20046;-54
2022/09/10 04:24:01;;;;;;;24.48;10.18;;;;;;;7.28;82.56;100704.22;4951458;28;20047;-53
2022/09/10 04:26:28;;;;;;;21.88;9.07;;;;;;;7.35;82.34;100711.09;4967106;28;20597;-54
2022/09/10 04:28:54;;;;;;;24.55;9.73;;;;;;;7.40;81.59;100717.97;4966843;28;20545;-53
2022/09/10 04:31:20;;;;;;;20.67;9.05;;;;;;;7.46;81.18;100711.91;4966748;28;20042;-52
2022/09/10 04:33:47;;;;;;;16.45;8.98;;;;;;;7.54;80.49;100717.91;4965881;28;20569;-55
2022/09/10 04:36:16;;;;;;;26.50;9.90;;;;;;;7.36;80.30;100664.53;4952921;28;20046;-52
2022/09/10 04:38:43;;;;;;;25.27;11.20;;;;;;;7.72;79.94;100722.13;4967353;28;20061;-54
2022/09/10 04:41:14;;;;;;;18.85;9.38;;;;;;;7.77;79.87;100716.06;4970656;28;20050;-53
2022/09/10 04:43:41;;;;;;;26.88;10.50;;;;;;;7.86;79.56;100722.88;4971080;28;20050;-52
2022/09/10 04:46:07;;;;;;;18.15;8.77;;;;;;;7.93;79.27;100717.66;4971080;28;20045;-52
2022/09/10 04:48:35;;;;;;;14.60;7.82;;;;;;;7.96;78.54;100711.59;4969739;28;20074;-55
2022/09/10 04:51:01;;;;;;;12.90;7.30;;;;;;;8.08;78.20;100722.72;4969935;28;20042;-55
2022/09/10 04:53:30;;;;;;;14.80;6.65;;;;;;;8.15;77.24;100723.56;4971253;28;20063;-53
2022/09/10 04:55:57;;;;;;;13.43;7.10;;;;;;;8.19;76.62;100725.25;4955261;28;20042;-52
2022/09/10 04:58:23;;;;;;;15.73;7.22;;;;;;;8.29;76.18;100731.19;4955179;28;20620;-55
2022/09/10 05:00:49;;;;;;;13.65;6.80;;;;;;;8.39;75.71;100730.28;4970487;28;20042;-56
2022/09/10 05:03:17;;;;;;;13.13;6.73;;;;;;;8.38;75.20;100715.59;4970942;28;20125;-54
2022/09/10 05:05:45;;;;;;;15.73;7.10;;;;;;;8.58;75.16;100734.44;4969020;28;20121;-55
2022/09/10 05:08:12;;;;;;;18.63;7.60;;;;;;;8.67;74.77;100728.31;4963352;28;20071;-51
2022/09/10 05:10:40;;;;;;;13.68;7.05;;;;;;;8.81;74.19;100721.22;4957293;28;20545;-58
2022/09/10 05:13:06;;;;;;;10.80;5.00;;;;;;;8.99;73.49;100730.56;4969147;28;20049;-58
2022/09/10 05:15:34;;;;;;;14.80;6.03;;;;;;;9.10;72.79;100726.97;4970177;28;20038;-56
2022/09/10 05:18:02;;;;;;;9.63;5.70;;;;;;;9.22;71.62;100724.22;4968915;28;20068;-56
2022/09/10 05:20:28;;;;;;;12.18;5.75;;;;;;;9.34;70.98;100739.63;4967536;28;20038;-57
2022/09/10 05:22:55;;;;;;;11.48;5.13;;;;;;;9.48;70.51;100736.84;4970937;28;20046;-56
2022/09/10 05:25:22;;;;;;;11.60;4.68;;;;;;;9.58;69.27;100729.81;4970748;28;20035;-57
2022/09/10 05:27:48;;;;;;;14.82;5.03;;;;;;;9.63;68.15;100733.22;4971182;28;20043;-54
2022/09/10 05:30:18;;;;;;;9.73;4.80;;;;;;;9.77;67.57;100724.34;4939012;28;20065;-56
2022/09/10 05:32:46;;;;;;;11.38;4.97;;;;;;;9.78;67.22;100712.22;4970409;28;20047;-52
2022/09/10 05:35:13;;;;;;;13.70;5.60;;;;;;;10.07;66.46;100729.97;4954878;28;20450;-53
2022/09/10 05:37:44;;;;;;;9.15;4.43;;;;;;;10.23;65.72;100738.41;4955634;28;20052;-53
2022/09/10 05:40:13;;;;;;;7.85;4.28;;;;;;;10.43;65.25;100734.59;4955425;28;20035;-57
2022/09/10 05:42:39;;;;;;;8.83;4.57;;;;;;;10.61;64.07;100736.88;4946805;28;20053;-53
2022/09/10 05:45:06;;;;;;;16.92;5.00;;;;;;;10.80;63.99;100729.59;4965668;28;20719;-52
2022/09/10 05:47:33;;;;;;;9.95;4.40;;;;;;;10.96;62.26;100733.63;4974665;28;20112;-56
2022/09/10 05:50:00;;;;;;;12.43;4.30;;;;;;;11.07;62.30;100703.94;4969962;28;20077;-56
2022/09/10 05:52:29;;;;;;;8.57;3.92;;;;;;;11.56;61.35;100732.44;4971589;28;20510;-52
2022/09/10 05:55:02;;;;;;;9.18;4.40;;;;;;;12.18;59.71;100728.41;4969546;28;20050;-57
2022/09/10 05:57:30;;;;;;;7.43;4.38;;;;;;;12.90;57.64;100722.19;4965445;28;20034;-57
2022/09/10 05:59:55;;;;;;;8.73;3.90;;;;;;;13.60;55.55;100720.22;4968199;28;20046;-56
2022/09/10 06:02:22;;;;;;;6.28;3.50;;;;;;;14.44;53.07;100721.91;4964548;28;20435;-56
2022/09/10 06:04:48;;;;;;;5.25;3.50;;;;;;;15.36;50.75;100720.34;4971803;28;20051;-58
2022/09/10 06:07:14;;;;;;;8.15;3.75;;;;;;;16.09;48.93;100728.00;4970348;28;20567;-54
2022/09/10 06:09:41;;;;;;;8.32;3.47;;;;;;;17.05;47.23;100727.44;4954055;28;20042;-55
2022/09/10 06:12:20;;;;;;;7.70;3.22;;;;;;;17.94;44.94;100706.66;4956480;28;20066;-55
2022/09/10 06:14:45;;;;;;;6.55;3.63;;;;;;;18.86;43.27;100729.25;4949526;29;20043;-54
2022/09/10 06:17:11;;;;;;;7.72;3.97;;;;;;;19.69;41.50;100723.91;4965919;28;20045;-53
2022/09/10 06:19:40;;;;;;;11.77;3.40;;;;;;;20.13;39.00;100709.06;4968470;28;20407;-56
2022/09/10 06:22:09;;;;;;;7.07;3.40;;;;;;;20.76;37.93;100722.13;4967126;28;20043;-53
2022/09/10 06:24:38;;;;;;;5.93;2.97;;;;;;;21.41;36.07;100723.38;4952480;28;20050;-59
2022/09/10 06:27:05;;;;;;;5.82;3.38;;;;;;;22.21;35.05;100719.16;4970141;28;20427;-56
2022/09/10 06:29:32;;;;;;;4.38;3.15;;;;;;;22.92;33.83;100685.16;4966548;28;20043;-56
2022/09/10 06:31:59;;;;;;;3.60;2.72;;;;;;;23.70;31.58;100706.16;4968660;28;20047;-59
2022/09/10 06:34:25;;;;;;;5.85;2.80;;;;;;;24.30;31.11;100719.41;4960118;28;20046;-57
2022/09/10 06:36:52;;;;;;;5.18;2.85;;;;;;;25.16;30.01;100718.09;4968264;28;20045;-58
2022/09/10 06:39:19;;;;;;;6.88;3.05;;;;;;;25.58;29.07;100719.19;4953881;28;20438;-60
2022/09/10 06:41:52;;;;;;;13.30;3.53;;;;;;;26.20;27.42;100717.69;4967846;28;20142;-59
2022/09/10 06:44:38;;;;;;;24.02;9.05;;;;;;;26.65;27.22;100715.66;4968485;28;20038;-60
2022/09/10 06:47:33;;;;;;;22.67;9.80;;;;;;;27.67;26.52;100713.81;4919232;28;20161;-61
2022/09/10 06:49:59;;;;;;;7.15;3.05;;;;;;;28.33;25.47;100689.13;4953088;28;20407;-61
2022/09/10 06:52:27;;;;;;;13.30;3.38;;;;;;;29.35;24.26;100716.00;4969530;28;20039;-59
2022/09/10 06:54:58;;;;;;;6.63;3.10;;;;;;;29.80;23.84;100709.81;4968908;28;20042;-56
2022/09/10 06:57:40;;;;;;;4.57;2.55;;;;;;;30.40;22.63;100705.56;4970237;28;20112;-56
2022/09/10 07:00:07;;;;;;;8.15;3.42;;;;;;;30.89;22.38;100714.81;4968454;28;20057;-59
2022/09/10 07:02:34;;;;;;;3.60;1.80;;;;;;;31.21;21.48;100716.88;4967045;28;20070;-56
2022/09/10 07:05:02;;;;;;;3.58;2.10;;;;;;;31.55;20.92;100712.34;4966847;28;20051;-55
2022/09/10 07:07:30;;;;;;;4.88;1.90;;;;;;;31.87;20.37;100706.25;4968602;28;20518;-57
2022/09/10 07:09:56;;;;;;;8.75;2.10;;;;;;;32.21;19.83;100705.31;4968574;28;20105;-59
2022/09/10 07:12:22;;;;;;;7.10;2.47;;;;;;;32.60;19.83;100709.00;4983495;28;20042;-58
2022/09/10 07:14:48;;;;;;;3.10;1.90;;;;;;;32.94;18.91;100700.72;4952101;28;20046;-59
2022/09/10 07:17:14;;;;;;;3.67;2.97;;;;;;;33.44;18.42;100699.56;4968020;28;20043;-60
2022/09/10 07:19:40;;;;;;;4.55;2.72;;;;;;;33.85;17.85;100709.16;4952582;28;20134;-58
2022/09/10 07:22:17;;;;;;;7.22;4.18;;;;;;;34.23;17.34;100704.69;4968058;28;20541;-59
2022/09/10 07:24:48;;;;;;;3.03;2.15;;;;;;;33.41;17.51;100700.75;4969441;28;20115;-59
2022/09/10 07:27:23;;;;;;;4.93;1.98;;;;;;;33.91;16.97;100700.34;4967598;28;20422;-60
2022/09/10 07:29:50;;;;;;;6.35;3.03;;;;;;;34.10;17.15;100695.47;4967495;28;20046;-59
2022/09/10 07:32:18;;;;;;;3.97;2.88;;;;;;;34.33;16.63;100685.56;4979439;28;20048;-58
2022/09/10 07:34:46;;;;;;;13.80;7.85;;;;;;;34.81;16.53;100703.16;4983462;28;20050;-60
2022/09/10 07:37:14;;;;;;;5.22;3.13;;;;;;;34.84;16.17;100692.00;4967556;28;20046;-59
2022/09/10 07:39:40;;;;;;;3.30;2.10;;;;;;;33.97;16.12;100693.38;4965468;28;20145;-59
2022/09/10 07:42:09;;;;;;;1.38;1.27;;;;;;;32.55;17.05;100673.66;4966375;28;20412;-60
2022/09/10 07:44:35;;;;;;;9.90;4.50;;;;;;;32.68;17.33;100692.84;4949268;28;20495;-58
2022/09/10 07:47:02;;;;;;;4.40;1.67;;;;;;;32.73;17.57;100690.50;4966877;28;20031;-58
2022/09/10 07:49:29;;;;;;;1.83;1.60;;;;;;;31.89;17.52;100682.69;4950698;28;20522;-55
2022/09/10 07:51:55;;;;;;;2.80;1.70;;;;;;;31.44;17.93;100687.59;4981779;28;20057;-58
2022/09/10 07:54:23;;;;;;;3.90;2.10;;;;;;;31.75;18.06;100682.50;4951934;28;20038;-58
2022/09/10 07:56:53;;;;;;;2.97;1.80;;;;;;;32.59;17.26;100684.94;4965794;28;20153;-58
2022/09/10 07:59:19;;;;;;;2.45;1.70;;;;;;;31.31;18.40;100682.66;4944581;28;20042;-59
2022/09/10 08:01:49;;;;;;;3.85;2.13;;;;;;;30.83;18.35;100677.03;4949054;28;20557;-59
2022/09/10 08:04:17;;;;;;;5.60;1.80;;;;;;;31.37;18.07;100675.81;4956967;28;20042;-60
2022/09/10 08:06:43;;;;;;;2.95;1.80;;;;;;;32.13;17.42;100667.63;4967949;28;20046;-59
2022/09/10 08:09:10;;;;;;;4.85;1.40;;;;;;;32.34;16.97;100666.13;4969190;28;20051;-59
2022/09/10 08:11:43;;;;;;;8.15;4.28;;;;;;;32.04;17.80;100660.50;4973783;28;20042;-58
2022/09/10 08:14:12;;;;;;;4.93;3.20;;;;;;;31.93;18.16;100665.22;4981211;28;20051;-60
2022/09/10 08:16:39;;;;;;;6.47;3.00;;;;;;;32.19;18.17;100667.78;4970269;28;20755;-60
2022/09/10 08:19:09;;;;;;;8.20;1.65;;;;;;;31.83;17.68;100664.53;4953168;28;20491;-60
2022/09/10 08:21:36;;;;;;;9.57;1.70;;;;;;;32.03;17.74;100664.22;4955634;28;20042;-59
2022/09/10 08:24:02;;;;;;;4.38;2.10;;;;;;;32.12;17.48;100663.25;4970013;28;20043;-57
2022/09/10 08:26:32;;;;;;;5.43;1.80;;;;;;;32.32;17.37;100659.22;4970722;28;20042;-58
2022/09/10 08:29:01;;;;;;;2.28;1.90;;;;;;;32.13;17.10;100649.63;4966813;28;20505;-60
2022/09/10 08:31:27;;;;;;;2.08;1.88;;;;;;;32.59;16.85;100645.38;4972224;28;20054;-63
2022/09/10 08:34:08;;;;;;;7.72;2.78;;;;;;;33.13;16.62;100624.03;4970981;28;20039;-60
2022/09/10 08:36:36;;;;;;;15.02;3.40;;;;;;;34.11;16.27;100649.41;4955592;28;20419;-59
2022/09/10 08:39:01;;;;;;;2.22;2.00;;;;;;;34.77;15.46;100645.94;4970820;28;20056;-60
2022/09/10 08:41:37;;;;;;;5.60;2.25;;;;;;;35.08;15.24;100644.91;4954362;28;20534;-60
2022/09/10 08:44:33;;;;;;;5.85;3.40;;;;;;;34.51;15.16;100640.13;4968524;28;20145;-60
2022/09/10 08:47:09;;;;;;;4.82;1.95;;;;;;;34.34;15.63;100639.44;4913974;29;20039;-60
2022/09/10 08:49:50;;;;;;;2.13;1.88;;;;;;;35.00;15.02;100639.63;4978692;28;20045;-60
2022/09/10 08:52:48;;;;;;;2.63;2.00;;;;;;;35.39;14.94;100642.00;4986369;28;20057;-60
2022/09/10 08:55:28;;;;;;;7.72;2.00;;;;;;;35.88;14.68;100634.03;4952386;28;20050;-61
2022/09/10 08:58:02;;;;;;;4.57;2.05;;;;;;;35.77;14.76;100634.53;4953100;28;20142;-60
2022/09/10 09:00:33;;;;;;;2.60;1.80;;;;;;;35.60;14.27;100633.91;4956795;28;20050;-61
2022/09/10 09:03:08;;;;;;;6.50;3.13;;;;;;;35.82;14.20;100629.38;4951077;28;20106;-61
2022/09/10 09:05:58;;;;;;;3.50;2.00;;;;;;;36.16;14.38;100631.41;4965152;28;20074;-59
2022/09/10 09:08:39;;;;;;;3.10;2.78;;;;;;;36.30;14.07;100627.75;4933903;28;20047;-51
2022/09/10 09:11:28;;;;;;;3.63;3.13;;;;;;;36.35;14.48;100628.00;4950698;28;20138;-46
2022/09/10 09:14:02;;;;;;;3.53;2.50;;;;;;;36.30;14.48;100627.75;4962389;28;20806;-44
2022/09/10 09:16:47;;;;;;;5.05;2.42;;;;;;;36.45;13.71;100609.53;4971170;28;20101;-45
2022/09/10 09:19:16;;;;;;;5.75;2.67;;;;;;;36.32;14.43;100618.44;4952394;28;20155;-43
2022/09/10 09:21:55;;;;;;;11.63;3.10;;;;;;;36.29;14.01;100618.81;4968829;28;20628;-44
2022/09/10 09:24:43;;;;;;;2.42;2.20;;;;;;;36.36;14.11;100592.59;4952897;28;20450;-47
2022/09/10 09:27:15;;;;;;;3.03;2.05;;;;;;;36.67;14.10;100603.03;4951515;28;20051;-49
2022/09/10 09:29:51;;;;;;;5.57;2.60;;;;;;;37.38;13.48;100611.72;4968386;28;20566;-47
2022/09/10 09:32:19;;;;;;;2.80;2.15;;;;;;;36.58;13.65;100600.66;4967771;28;20073;-44
2022/09/10 09:34:49;;;;;;;4.65;2.50;;;;;;;36.34;13.78;100601.94;4954705;28;20051;-44
2022/09/10 09:37:20;;;;;;;2.40;2.13;;;;;;;36.48;13.65;100603.75;4954612;28;20090;-50
2022/09/10 09:40:03;;;;;;;5.25;2.22;;;;;;;36.61;13.34;100598.38;4968663;28;20051;-51
2022/09/10 09:42:56;;;;;;;3.63;2.20;;;;;;;36.84;13.48;100598.13;5105178;27;20779;-45
2022/09/10 09:45:44;;;;;;;2.67;1.92;;;;;;;37.06;12.98;100591.53;5085204;28;20039;-45
2022/09/10 09:48:15;;;;;;;3.00;2.55;;;;;;;37.00;12.81;100597.78;5068643;28;20040;-43
2022/09/10 09:50:45;;;;;;;4.25;2.33;;;;;;;35.93;13.56;100593.69;5063966;28;20063;-48
2022/09/10 09:53:26;;;;;;;2.35;2.05;;;;;;;34.85;14.07;100585.56;5072408;28;20079;-44
2022/09/10 09:55:55;;;;;;;6.10;4.35;;;;;;;35.22;14.17;100581.91;5084742;28;20437;-46
2022/09/10 09:58:20;;;;;;;8.25;3.20;;;;;;;36.30;13.83;100579.00;5064052;28;20059;-43
2022/09/10 10:00:48;;;;;;;4.72;2.60;;;;;;;37.10;13.01;100564.91;5078756;28;20033;-52
2022/09/10 10:03:21;;;;;;;12.93;5.35;;;;;;;37.56;13.10;100574.03;5064514;28;20049;-45
2022/09/10 10:05:47;;;;;;;2.45;2.20;;;;;;;37.93;12.56;100580.72;5075638;28;20033;-47
2022/09/10 10:08:36;;;;;;;2.50;2.30;;;;;;;36.61;12.67;100568.56;5053160;28;20036;-48
2022/09/10 10:11:03;;;;;;;3.05;2.22;;;;;;;35.93;12.94;100569.31;5073058;28;20084;-46
2022/09/10 10:14:50;;;;;;;;;;;;;;;;;;;;;
2022/09/10 10:17:26;;;;;;;6.15;2.53;;;;;;;36.43;13.35;100562.84;5002718;28;20167;-48
2022/09/10 10:19:57;;;;;;;3.20;2.20;;;;;;;36.95;13.06;100531.66;5067975;28;20131;-48
2022/09/10 10:22:25;;;;;;;5.18;2.13;;;;;;;35.85;13.10;100550.53;5082705;28;20495;-51
2022/09/10 10:24:53;;;;;;;5.57;2.30;;;;;;;35.81;13.63;100555.47;5084513;28;20048;-46
2022/09/10 10:27:41;;;;;;;3.78;2.10;;;;;;;36.10;13.20;100563.44;5084360;28;20549;-50
2022/09/10 10:30:16;;;;;;;2.42;2.20;;;;;;;36.80;12.49;100553.47;5084225;28;20063;-45
2022/09/10 10:32:57;;;;;;;3.10;2.30;;;;;;;37.38;12.24;100545.75;5085450;28;20538;-50
2022/09/10 10:35:50;;;;;;;19.95;10.38;;;;;;;37.86;12.22;100546.47;5085085;28;20040;-50
2022/09/10 10:38:28;;;;;;;34.75;11.40;;;;;;;37.71;12.45;100541.25;5078162;28;20051;-52
2022/09/10 10:41:22;;;;;;;3.08;2.50;;;;;;;37.53;12.03;100541.00;5084887;28;20056;-48
2022/09/10 10:43:57;;;;;;;3.65;2.85;;;;;;;36.94;12.61;100536.22;5065443;28;20521;-48
2022/09/10 10:47:16;;;;;;;3.30;2.97;;;;;;;36.93;12.38;100526.41;5081777;28;20044;-50
2022/09/10 10:50:14;;;;;;;3.67;2.60;;;;;;;36.96;12.65;100525.16;5050520;28;20048;-46
2022/09/10 10:53:14;;;;;;;4.35;3.00;;;;;;;35.75;12.72;100522.94;5019579;28;20523;-48
2022/09/10 10:55:57;;;;;;;3.75;2.75;;;;;;;34.96;13.42;100489.66;5070469;28;20070;-47
2022/09/10 10:58:48;;;;;;;5.45;4.35;;;;;;;36.02;13.30;100511.28;5070435;28;20577;-49
2022/09/10 11:01:21;;;;;;;4.07;2.10;;;;;;;35.83;13.17;100510.09;5070835;28;20036;-49
2022/09/10 11:03:59;;;;;;;5.10;2.30;;;;;;;36.22;12.91;100514.16;5036872;28;20036;-50
2022/09/10 11:06:34;;;;;;;12.13;5.72;;;;;;;37.09;12.75;100504.38;5071525;28;20396;-50
2022/09/10 11:09:13;;;;;;;15.35;6.30;;;;;;;37.72;12.74;100499.47;5053453;28;20071;-49
2022/09/10 11:11:51;;;;;;;10.38;4.95;;;;;;;38.12;12.16;100492.16;5053168;28;20515;-47
2022/09/10 11:14:26;;;;;;;20.33;8.98;;;;;;;38.30;12.22;100494.19;5053674;28;20047;-49
2022/09/10 11:17:19;;;;;;;13.18;3.65;;;;;;;38.60;12.21;100495.38;5070000;28;20071;-50
2022/09/10 11:20:08;;;;;;;18.55;5.65;;;;;;;38.94;12.07;100494.22;5045723;28;20060;-50
2022/09/10 11:22:39;;;;;;;12.88;5.43;;;;;;;39.18;11.79;100484.44;5070440;28;20484;-52
2022/09/10 11:26:00;;;;;;;4.68;2.60;;;;;;;39.15;11.78;100482.16;5071452;28;20044;-47
2022/09/10 11:28:38;;;;;;;4.30;3.78;;;;;;;38.74;11.81;100461.63;5051331;28;20052;-48
2022/09/10 11:31:20;;;;;;;3.17;2.88;;;;;;;38.91;11.60;100476.44;5071141;28;20085;-44
2022/09/10 11:34:03;;;;;;;3.38;2.97;;;;;;;39.14;11.41;100473.16;5053130;28;20412;-47
2022/09/10 11:36:45;;;;;;;3.78;2.40;;;;;;;37.32;12.09;100461.44;5071218;28;20044;-46
2022/09/10 11:39:34;;;;;;;4.10;2.75;;;;;;;37.15;12.75;100464.75;5070625;28;20036;-50
2022/09/10 11:42:05;;;;;;;7.03;2.97;;;;;;;37.53;11.98;100454.97;5047688;28;20126;-47
2022/09/10 11:44:46;;;;;;;13.13;10.88;;;;;;;36.84;12.84;100455.28;5069540;28;20048;-49
2022/09/10 11:47:19;;;;;;;5.40;2.60;;;;;;;34.19;13.77;100446.88;5068622;28;20101;-47